AEE781 LGAV-LGIR
Flight info
| Callsign | AEE781 |
|---|---|
| Flight time | 0h 36m |
| Altitude | 25000 |
| Route | KEA UL607 GIVIS T514 XAVIS |
| Aircraft | A20N/M-SDE2E3FGHIRWXY/LB1 |
Departure
| Time | 2026-05-06 17:52 |
|---|---|
| Airport | Athens Eleftherios Venizelos International Airport (LGAV) |
Arrival
| Time | 2026-05-06 18:28 |
|---|---|
| Airport | Heraklion International Nikos Kazantzakis Airport (LGIR) |
| Time | Latitude | Longitude | Altitude | Speed | Heading |
|---|---|---|---|---|---|
| 2026-05-06 17:36 | 37.93874 | 23.95096 | 281 ft | 0 kts | 309° |
| 2026-05-06 17:43 | 37.93873 | 23.95096 | 281 ft | 2 kts | 309° |
| 2026-05-06 17:43 | 37.93863 | 23.95112 | 284 ft | 2 kts | 309° |
| 2026-05-06 17:43 | 37.93851 | 23.95125 | 281 ft | 2 kts | 336° |
| 2026-05-06 17:43 | 37.93836 | 23.95130 | 284 ft | 2 kts | 357° |
| 2026-05-06 17:44 | 37.93819 | 23.95131 | 281 ft | 2 kts | 2° |
| 2026-05-06 17:44 | 37.93812 | 23.95128 | 281 ft | 0 kts | 20° |
| 2026-05-06 17:45 | 37.93814 | 23.95129 | 281 ft | 0 kts | 20° |
| 2026-05-06 17:45 | 37.93817 | 23.95130 | 281 ft | 2 kts | 20° |
| 2026-05-06 17:45 | 37.93819 | 23.95136 | 281 ft | 2 kts | 51° |
| 2026-05-06 17:46 | 37.93839 | 23.95166 | 280 ft | 7 kts | 51° |
| 2026-05-06 17:46 | 37.93856 | 23.95235 | 280 ft | 10 kts | 78° |
| 2026-05-06 17:46 | 37.93889 | 23.95338 | 279 ft | 15 kts | 60° |
| 2026-05-06 17:46 | 37.93975 | 23.95441 | 278 ft | 19 kts | 39° |
| 2026-05-06 17:47 | 37.94095 | 23.95550 | 279 ft | 23 kts | 35° |
| 2026-05-06 17:47 | 37.94219 | 23.95674 | 280 ft | 21 kts | 37° |
| 2026-05-06 17:47 | 37.94345 | 23.95795 | 276 ft | 22 kts | 37° |
| 2026-05-06 17:47 | 37.94476 | 23.95923 | 273 ft | 25 kts | 37° |
| 2026-05-06 17:48 | 37.94594 | 23.96072 | 271 ft | 14 kts | 97° |
| 2026-05-06 17:48 | 37.94613 | 23.96182 | 271 ft | 14 kts | 55° |
| 2026-05-06 17:48 | 37.94699 | 23.96273 | 269 ft | 18 kts | 40° |
| 2026-05-06 17:48 | 37.94808 | 23.96384 | 268 ft | 22 kts | 34° |
| 2026-05-06 17:49 | 37.94944 | 23.96504 | 267 ft | 26 kts | 36° |
| 2026-05-06 17:49 | 37.95085 | 23.96638 | 266 ft | 19 kts | 38° |
| 2026-05-06 17:49 | 37.95202 | 23.96755 | 264 ft | 23 kts | 38° |
| 2026-05-06 17:49 | 37.95286 | 23.96896 | 263 ft | 17 kts | 101° |
| 2026-05-06 17:50 | 37.95221 | 23.97006 | 264 ft | 15 kts | 154° |
| 2026-05-06 17:50 | 37.95139 | 23.96960 | 266 ft | 11 kts | 220° |
| 2026-05-06 17:50 | 37.95135 | 23.96955 | 266 ft | 0 kts | 220° |
| 2026-05-06 17:50 | 37.95123 | 23.96942 | 266 ft | 4 kts | 220° |
| 2026-05-06 17:51 | 37.95121 | 23.96941 | 266 ft | 0 kts | 219° |
| 2026-05-06 17:51 | 37.95044 | 23.96868 | 267 ft | 47 kts | 217° |
| 2026-05-06 17:51 | 37.94581 | 23.96426 | 268 ft | 116 kts | 217° |
| 2026-05-06 17:51 | 37.93804 | 23.95678 | 279 ft | 162 kts | 217° |
| 2026-05-06 17:52 | 37.92787 | 23.94717 | 420 ft | 201 kts | 217° |
| 2026-05-06 17:52 | 37.91705 | 23.93749 | 1634 ft | 184 kts | 213° |
| 2026-05-06 17:52 | 37.90541 | 23.92914 | 2584 ft | 202 kts | 206° |
| 2026-05-06 17:52 | 37.89201 | 23.92097 | 3368 ft | 225 kts | 206° |
| 2026-05-06 17:53 | 37.87736 | 23.91204 | 4082 ft | 241 kts | 207° |
| 2026-05-06 17:53 | 37.86211 | 23.90235 | 5006 ft | 251 kts | 208° |
| 2026-05-06 17:53 | 37.84631 | 23.89198 | 5625 ft | 257 kts | 208° |
| 2026-05-06 17:53 | 37.83053 | 23.88147 | 5884 ft | 258 kts | 209° |
| 2026-05-06 17:54 | 37.81458 | 23.87073 | 5991 ft | 259 kts | 209° |
| 2026-05-06 17:54 | 37.79869 | 23.86002 | 6001 ft | 259 kts | 209° |
| 2026-05-06 17:54 | 37.78290 | 23.84964 | 5997 ft | 259 kts | 204° |
| 2026-05-06 17:54 | 37.77116 | 23.84585 | 5997 ft | 260 kts | 184° |
| 2026-05-06 17:55 | 37.74792 | 23.85369 | 6400 ft | 270 kts | 143° |
| 2026-05-06 17:55 | 37.73580 | 23.87141 | 7473 ft | 267 kts | 118° |
| 2026-05-06 17:55 | 37.72734 | 23.89140 | 8277 ft | 283 kts | 117° |
| 2026-05-06 17:55 | 37.71768 | 23.91459 | 9220 ft | 291 kts | 117° |
| 2026-05-06 17:56 | 37.70837 | 23.93703 | 10262 ft | 295 kts | 117° |
| 2026-05-06 17:56 | 37.69851 | 23.96079 | 10819 ft | 318 kts | 117° |
| 2026-05-06 17:56 | 37.68784 | 23.98644 | 11223 ft | 342 kts | 117° |
| 2026-05-06 17:56 | 37.67660 | 24.01344 | 11900 ft | 353 kts | 117° |
| 2026-05-06 17:57 | 37.66536 | 24.04043 | 12764 ft | 359 kts | 117° |
| 2026-05-06 17:57 | 37.65359 | 24.06862 | 13652 ft | 365 kts | 117° |
| 2026-05-06 17:57 | 37.64159 | 24.09734 | 14309 ft | 373 kts | 116° |
| 2026-05-06 17:57 | 37.62942 | 24.12644 | 14890 ft | 378 kts | 116° |
| 2026-05-06 17:58 | 37.61707 | 24.15595 | 15548 ft | 383 kts | 116° |
| 2026-05-06 17:58 | 37.60455 | 24.18586 | 16226 ft | 388 kts | 116° |
| 2026-05-06 17:58 | 37.59614 | 24.20591 | 16665 ft | 392 kts | 116° |
| 2026-05-06 17:58 | 37.58331 | 24.23653 | 17361 ft | 397 kts | 116° |
| 2026-05-06 17:59 | 37.57008 | 24.26750 | 18072 ft | 404 kts | 120° |
| 2026-05-06 17:59 | 37.55303 | 24.29593 | 18738 ft | 410 kts | 134° |
| 2026-05-06 17:59 | 37.53132 | 24.31927 | 19368 ft | 413 kts | 147° |
| 2026-05-06 17:59 | 37.50677 | 24.33855 | 20014 ft | 417 kts | 149° |
| 2026-05-06 18:00 | 37.48201 | 24.35785 | 20671 ft | 421 kts | 149° |
| 2026-05-06 18:00 | 37.45694 | 24.37748 | 21343 ft | 425 kts | 148° |
| 2026-05-06 18:00 | 37.43176 | 24.39724 | 22041 ft | 428 kts | 148° |
| 2026-05-06 18:00 | 37.40640 | 24.41713 | 22738 ft | 431 kts | 148° |
| 2026-05-06 18:01 | 37.38094 | 24.43709 | 23455 ft | 433 kts | 148° |
| 2026-05-06 18:01 | 37.35532 | 24.45717 | 24105 ft | 434 kts | 148° |
| 2026-05-06 18:01 | 37.32965 | 24.47727 | 24689 ft | 436 kts | 148° |
| 2026-05-06 18:01 | 37.30365 | 24.49760 | 24965 ft | 447 kts | 148° |
| 2026-05-06 18:02 | 37.27703 | 24.51840 | 25064 ft | 452 kts | 148° |
| 2026-05-06 18:02 | 37.25059 | 24.53904 | 25075 ft | 451 kts | 148° |
| 2026-05-06 18:02 | 37.22394 | 24.55983 | 25075 ft | 451 kts | 148° |
| 2026-05-06 18:02 | 37.19723 | 24.58065 | 25075 ft | 451 kts | 148° |
| 2026-05-06 18:03 | 37.17069 | 24.60132 | 25075 ft | 451 kts | 148° |
| 2026-05-06 18:03 | 37.14387 | 24.62219 | 25071 ft | 451 kts | 148° |
| 2026-05-06 18:03 | 37.11717 | 24.64294 | 25075 ft | 451 kts | 148° |
| 2026-05-06 18:03 | 37.09050 | 24.66367 | 25075 ft | 451 kts | 148° |
| 2026-05-06 18:04 | 37.06385 | 24.68435 | 25073 ft | 451 kts | 148° |
| 2026-05-06 18:04 | 37.03710 | 24.70509 | 25075 ft | 451 kts | 148° |
| 2026-05-06 18:04 | 37.01093 | 24.72537 | 25075 ft | 451 kts | 148° |
| 2026-05-06 18:04 | 36.98742 | 24.74358 | 25075 ft | 451 kts | 148° |
| 2026-05-06 18:05 | 36.96136 | 24.76374 | 25082 ft | 451 kts | 148° |
| 2026-05-06 18:05 | 36.93464 | 24.78440 | 25081 ft | 451 kts | 149° |
| 2026-05-06 18:05 | 36.90793 | 24.80504 | 25081 ft | 451 kts | 148° |
| 2026-05-06 18:05 | 36.88127 | 24.82567 | 25081 ft | 451 kts | 148° |
| 2026-05-06 18:06 | 36.85463 | 24.84630 | 25081 ft | 450 kts | 148° |
| 2026-05-06 18:06 | 36.82801 | 24.86690 | 25081 ft | 450 kts | 148° |
| 2026-05-06 18:06 | 36.80165 | 24.88727 | 25081 ft | 450 kts | 148° |
| 2026-05-06 18:06 | 36.77494 | 24.90790 | 25082 ft | 450 kts | 148° |
| 2026-05-06 18:07 | 36.74823 | 24.92850 | 25084 ft | 450 kts | 148° |
| 2026-05-06 18:07 | 36.72147 | 24.94912 | 25085 ft | 450 kts | 148° |
| 2026-05-06 18:07 | 36.69483 | 24.96964 | 25086 ft | 450 kts | 149° |
| 2026-05-06 18:07 | 36.66813 | 24.99015 | 25086 ft | 450 kts | 149° |
| 2026-05-06 18:08 | 36.64141 | 25.01063 | 25088 ft | 450 kts | 149° |
| 2026-05-06 18:08 | 36.61466 | 25.03113 | 25087 ft | 453 kts | 149° |
| 2026-05-06 18:08 | 36.58817 | 25.05141 | 25085 ft | 451 kts | 149° |
| 2026-05-06 18:08 | 36.56142 | 25.07188 | 25086 ft | 451 kts | 149° |
| 2026-05-06 18:09 | 36.53471 | 25.09230 | 25088 ft | 451 kts | 149° |
| 2026-05-06 18:09 | 36.50792 | 25.11276 | 25089 ft | 451 kts | 149° |
| 2026-05-06 18:09 | 36.48114 | 25.13321 | 25089 ft | 451 kts | 149° |
| 2026-05-06 18:09 | 36.45441 | 25.15359 | 25089 ft | 451 kts | 149° |
| 2026-05-06 18:10 | 36.42764 | 25.17399 | 25045 ft | 451 kts | 149° |
| 2026-05-06 18:10 | 36.40087 | 25.19437 | 24690 ft | 452 kts | 149° |
| 2026-05-06 18:10 | 36.37396 | 25.21484 | 23979 ft | 454 kts | 148° |
| 2026-05-06 18:10 | 36.34708 | 25.23527 | 23345 ft | 450 kts | 148° |
| 2026-05-06 18:11 | 36.32064 | 25.25536 | 22761 ft | 442 kts | 149° |
| 2026-05-06 18:11 | 36.29495 | 25.27487 | 22180 ft | 434 kts | 149° |
| 2026-05-06 18:11 | 36.26937 | 25.29428 | 21610 ft | 427 kts | 149° |
| 2026-05-06 18:11 | 36.24423 | 25.31333 | 21037 ft | 420 kts | 149° |
| 2026-05-06 18:12 | 36.21947 | 25.33209 | 20473 ft | 414 kts | 149° |
| 2026-05-06 18:12 | 36.19498 | 25.35064 | 19916 ft | 409 kts | 149° |
| 2026-05-06 18:12 | 36.17086 | 25.36890 | 19351 ft | 404 kts | 149° |
| 2026-05-06 18:12 | 36.14697 | 25.38697 | 18792 ft | 400 kts | 149° |
| 2026-05-06 18:13 | 36.12268 | 25.40353 | 18187 ft | 396 kts | 157° |
| 2026-05-06 18:13 | 36.09722 | 25.41564 | 17645 ft | 389 kts | 164° |
| 2026-05-06 18:13 | 36.07156 | 25.42579 | 17073 ft | 384 kts | 163° |
| 2026-05-06 18:13 | 36.04634 | 25.43590 | 16538 ft | 379 kts | 163° |
| 2026-05-06 18:14 | 36.02138 | 25.44595 | 15986 ft | 375 kts | 163° |
| 2026-05-06 18:14 | 35.99671 | 25.45587 | 15549 ft | 371 kts | 162° |
| 2026-05-06 18:14 | 35.97254 | 25.46556 | 14808 ft | 370 kts | 162° |
| 2026-05-06 18:14 | 35.94801 | 25.47543 | 14018 ft | 371 kts | 163° |
| 2026-05-06 18:15 | 35.92331 | 25.48537 | 13619 ft | 375 kts | 163° |
| 2026-05-06 18:15 | 35.89849 | 25.49532 | 13230 ft | 375 kts | 163° |
| 2026-05-06 18:15 | 35.87371 | 25.50524 | 12683 ft | 369 kts | 163° |
| 2026-05-06 18:15 | 35.84971 | 25.51486 | 12163 ft | 355 kts | 163° |
| 2026-05-06 18:16 | 35.82691 | 25.52400 | 11651 ft | 342 kts | 162° |
| 2026-05-06 18:16 | 35.80464 | 25.53292 | 11174 ft | 330 kts | 162° |
| 2026-05-06 18:16 | 35.78196 | 25.54199 | 10676 ft | 360 kts | 162° |
| 2026-05-06 18:16 | 35.75757 | 25.55173 | 10387 ft | 367 kts | 162° |
| 2026-05-06 18:17 | 35.73370 | 25.56127 | 10268 ft | 354 kts | 162° |
| 2026-05-06 18:17 | 35.71083 | 25.57054 | 10108 ft | 336 kts | 159° |
| 2026-05-06 18:17 | 35.69044 | 25.58253 | 9879 ft | 315 kts | 148° |
| 2026-05-06 18:17 | 35.67289 | 25.59796 | 9353 ft | 305 kts | 139° |
| 2026-05-06 18:18 | 35.65687 | 25.61406 | 8996 ft | 291 kts | 140° |
| 2026-05-06 18:18 | 35.64136 | 25.62947 | 8540 ft | 279 kts | 140° |
| 2026-05-06 18:18 | 35.62657 | 25.64409 | 8124 ft | 271 kts | 140° |
| 2026-05-06 18:18 | 35.61084 | 25.65760 | 7231 ft | 280 kts | 157° |
| 2026-05-06 18:19 | 35.59182 | 25.66190 | 6736 ft | 288 kts | 186° |
| 2026-05-06 18:19 | 35.57278 | 25.65487 | 6556 ft | 283 kts | 213° |
| 2026-05-06 18:19 | 35.55867 | 25.63856 | 6435 ft | 280 kts | 240° |
| 2026-05-06 18:19 | 35.55168 | 25.61668 | 6314 ft | 275 kts | 259° |
| 2026-05-06 18:20 | 35.54740 | 25.59404 | 6025 ft | 275 kts | 257° |
| 2026-05-06 18:20 | 35.54144 | 25.57187 | 5566 ft | 272 kts | 249° |
| 2026-05-06 18:20 | 35.53355 | 25.55143 | 5329 ft | 255 kts | 243° |
| 2026-05-06 18:20 | 35.52493 | 25.53291 | 4925 ft | 246 kts | 240° |
| 2026-05-06 18:21 | 35.51587 | 25.51518 | 4596 ft | 249 kts | 238° |
| 2026-05-06 18:21 | 35.50645 | 25.49741 | 4255 ft | 247 kts | 238° |
| 2026-05-06 18:21 | 35.49704 | 25.47981 | 3929 ft | 246 kts | 238° |
| 2026-05-06 18:21 | 35.48764 | 25.46220 | 3603 ft | 248 kts | 238° |
| 2026-05-06 18:22 | 35.47838 | 25.44481 | 3276 ft | 245 kts | 238° |
| 2026-05-06 18:22 | 35.46919 | 25.42749 | 3138 ft | 245 kts | 238° |
| 2026-05-06 18:22 | 35.45905 | 25.41075 | 3038 ft | 243 kts | 221° |
| 2026-05-06 18:22 | 35.44410 | 25.40135 | 3037 ft | 246 kts | 191° |
| 2026-05-06 18:23 | 35.42713 | 25.40242 | 3037 ft | 247 kts | 161° |
| 2026-05-06 18:23 | 35.41172 | 25.41171 | 3038 ft | 247 kts | 148° |
| 2026-05-06 18:23 | 35.39733 | 25.42331 | 3037 ft | 247 kts | 146° |
| 2026-05-06 18:23 | 35.38286 | 25.43473 | 3034 ft | 247 kts | 154° |
| 2026-05-06 18:24 | 35.36645 | 25.43925 | 3039 ft | 247 kts | 184° |
| 2026-05-06 18:24 | 35.35030 | 25.43322 | 3039 ft | 245 kts | 214° |
| 2026-05-06 18:24 | 35.33888 | 25.41814 | 3037 ft | 243 kts | 245° |
| 2026-05-06 18:24 | 35.33379 | 25.39870 | 2946 ft | 238 kts | 259° |
| 2026-05-06 18:25 | 35.33024 | 25.37887 | 2650 ft | 239 kts | 257° |
| 2026-05-06 18:25 | 35.32719 | 25.35902 | 2404 ft | 234 kts | 268° |
| 2026-05-06 18:25 | 35.32822 | 25.33910 | 2346 ft | 239 kts | 279° |
| 2026-05-06 18:25 | 35.33032 | 25.31901 | 2259 ft | 236 kts | 277° |
| 2026-05-06 18:26 | 35.33185 | 25.29900 | 2088 ft | 234 kts | 276° |
| 2026-05-06 18:26 | 35.33319 | 25.27929 | 1994 ft | 231 kts | 275° |
| 2026-05-06 18:26 | 35.33429 | 25.26034 | 1922 ft | 210 kts | 275° |
| 2026-05-06 18:26 | 35.33532 | 25.24381 | 1733 ft | 181 kts | 276° |
| 2026-05-06 18:27 | 35.33630 | 25.22962 | 1502 ft | 160 kts | 277° |
| 2026-05-06 18:27 | 35.33734 | 25.21584 | 967 ft | 165 kts | 277° |
| 2026-05-06 18:27 | 35.33851 | 25.20182 | 508 ft | 165 kts | 277° |
| 2026-05-06 18:27 | 35.33921 | 25.18801 | 126 ft | 161 kts | 274° |
| 2026-05-06 18:28 | 35.33996 | 25.17701 | 94 ft | 106 kts | 275° |
| 2026-05-06 18:28 | 35.34038 | 25.17063 | 81 ft | 57 kts | 270° |
| 2026-05-06 18:28 | 35.34045 | 25.16658 | 73 ft | 9 kts | 232° |
| 2026-05-06 18:28 | 35.34039 | 25.16655 | 68 ft | 0 kts | 210° |
| 2026-05-06 18:29 | 35.33998 | 25.16673 | 73 ft | 3 kts | 105° |
| 2026-05-06 18:29 | 35.33979 | 25.16751 | 75 ft | 18 kts | 106° |
| 2026-05-06 18:29 | 35.33969 | 25.16801 | 76 ft | 19 kts | 101° |
| 2026-05-06 18:29 | 35.33953 | 25.17025 | 76 ft | 13 kts | 95° |
| 2026-05-06 18:30 | 35.33937 | 25.17128 | 84 ft | 10 kts | 108° |
| 2026-05-06 18:30 | 35.33914 | 25.17214 | 87 ft | 11 kts | 112° |
| 2026-05-06 18:30 | 35.33858 | 25.17294 | 90 ft | 14 kts | 130° |
| 2026-05-06 18:30 | 35.33849 | 25.17307 | 90 ft | 0 kts | 136° |
| 2026-05-06 18:31 | 35.33848 | 25.17307 | 90 ft | 0 kts | 143° |